sensor_id;sensor_type;location;lat;lon;timestamp;P1;durP1;ratioP1;P2;durP2;ratioP2
3663;SDS011;1848;51.042;7.066;2022-10-31T00:00:27;12.57;;;9.57;;
3663;SDS011;1848;51.042;7.066;2022-10-31T00:02:53;16.43;;;11.47;;
3663;SDS011;1848;51.042;7.066;2022-10-31T00:05:20;15.73;;;10.20;;
3663;SDS011;1848;51.042;7.066;2022-10-31T00:07:47;15.37;;;11.10;;
3663;SDS011;1848;51.042;7.066;2022-10-31T00:10:13;18.80;;;10.50;;
3663;SDS011;1848;51.042;7.066;2022-10-31T00:12:39;13.67;;;10.10;;
3663;SDS011;1848;51.042;7.066;2022-10-31T00:15:06;13.53;;;10.60;;
3663;SDS011;1848;51.042;7.066;2022-10-31T00:17:34;13.23;;;9.80;;
3663;SDS011;1848;51.042;7.066;2022-10-31T00:20:02;13.87;;;10.80;;
3663;SDS011;1848;51.042;7.066;2022-10-31T00:22:29;17.33;;;10.17;;
3663;SDS011;1848;51.042;7.066;2022-10-31T00:24:55;15.03;;;9.20;;
3663;SDS011;1848;51.042;7.066;2022-10-31T00:27:21;14.37;;;10.10;;
3663;SDS011;1848;51.042;7.066;2022-10-31T00:29:48;14.00;;;10.10;;
3663;SDS011;1848;51.042;7.066;2022-10-31T00:32:14;14.40;;;10.27;;
3663;SDS011;1848;51.042;7.066;2022-10-31T00:34:40;19.37;;;10.77;;
3663;SDS011;1848;51.042;7.066;2022-10-31T00:37:07;11.33;;;9.90;;
3663;SDS011;1848;51.042;7.066;2022-10-31T00:39:33;14.47;;;10.00;;
3663;SDS011;1848;51.042;7.066;2022-10-31T00:41:59;17.30;;;10.10;;
3663;SDS011;1848;51.042;7.066;2022-10-31T00:44:26;13.37;;;9.80;;
3663;SDS011;1848;51.042;7.066;2022-10-31T00:46:52;14.87;;;10.60;;
3663;SDS011;1848;51.042;7.066;2022-10-31T00:49:18;17.03;;;10.30;;
3663;SDS011;1848;51.042;7.066;2022-10-31T00:51:45;16.60;;;10.00;;
3663;SDS011;1848;51.042;7.066;2022-10-31T00:54:11;9.97;;;8.60;;
3663;SDS011;1848;51.042;7.066;2022-10-31T00:56:38;15.93;;;9.70;;
3663;SDS011;1848;51.042;7.066;2022-10-31T00:59:04;13.57;;;9.53;;
3663;SDS011;1848;51.042;7.066;2022-10-31T01:01:30;12.37;;;8.87;;
3663;SDS011;1848;51.042;7.066;2022-10-31T01:03:57;13.47;;;9.30;;
3663;SDS011;1848;51.042;7.066;2022-10-31T01:06:23;13.03;;;8.67;;
3663;SDS011;1848;51.042;7.066;2022-10-31T01:08:49;19.97;;;10.00;;
3663;SDS011;1848;51.042;7.066;2022-10-31T01:11:18;17.37;;;9.43;;
3663;SDS011;1848;51.042;7.066;2022-10-31T01:13:47;12.43;;;8.87;;
3663;SDS011;1848;51.042;7.066;2022-10-31T01:16:16;10.63;;;8.50;;
3663;SDS011;1848;51.042;7.066;2022-10-31T01:18:44;10.40;;;9.10;;
3663;SDS011;1848;51.042;7.066;2022-10-31T01:23:39;15.00;;;10.37;;
3663;SDS011;1848;51.042;7.066;2022-10-31T01:26:07;14.60;;;9.87;;
3663;SDS011;1848;51.042;7.066;2022-10-31T01:28:36;17.30;;;10.37;;
3663;SDS011;1848;51.042;7.066;2022-10-31T01:31:05;15.10;;;10.20;;
3663;SDS011;1848;51.042;7.066;2022-10-31T01:33:33;18.20;;;11.27;;
3663;SDS011;1848;51.042;7.066;2022-10-31T01:36:00;14.10;;;10.63;;
3663;SDS011;1848;51.042;7.066;2022-10-31T01:38:27;17.10;;;10.80;;
3663;SDS011;1848;51.042;7.066;2022-10-31T01:40:53;13.87;;;9.97;;
3663;SDS011;1848;51.042;7.066;2022-10-31T01:43:20;11.70;;;9.60;;
3663;SDS011;1848;51.042;7.066;2022-10-31T01:45:52;13.47;;;9.40;;
3663;SDS011;1848;51.042;7.066;2022-10-31T01:48:20;15.53;;;9.47;;
3663;SDS011;1848;51.042;7.066;2022-10-31T01:50:53;13.30;;;10.07;;
3663;SDS011;1848;51.042;7.066;2022-10-31T01:53:21;13.73;;;10.50;;
3663;SDS011;1848;51.042;7.066;2022-10-31T01:55:52;17.73;;;10.30;;
3663;SDS011;1848;51.042;7.066;2022-10-31T01:58:20;19.07;;;10.50;;
3663;SDS011;1848;51.042;7.066;2022-10-31T02:00:51;18.07;;;11.00;;
3663;SDS011;1848;51.042;7.066;2022-10-31T02:03:23;15.10;;;10.23;;
3663;SDS011;1848;51.042;7.066;2022-10-31T02:05:55;13.17;;;10.23;;
3663;SDS011;1848;51.042;7.066;2022-10-31T02:08:27;16.33;;;9.80;;
3663;SDS011;1848;51.042;7.066;2022-10-31T02:10:56;15.00;;;11.33;;
3663;SDS011;1848;51.042;7.066;2022-10-31T02:13:23;16.37;;;10.83;;
3663;SDS011;1848;51.042;7.066;2022-10-31T02:15:57;12.27;;;10.27;;
3663;SDS011;1848;51.042;7.066;2022-10-31T02:18:25;13.20;;;10.30;;
3663;SDS011;1848;51.042;7.066;2022-10-31T02:23:36;13.40;;;9.77;;
3663;SDS011;1848;51.042;7.066;2022-10-31T02:26:27;15.03;;;10.50;;
3663;SDS011;1848;51.042;7.066;2022-10-31T02:34:42;11.93;;;9.87;;
3663;SDS011;1848;51.042;7.066;2022-10-31T02:40:22;15.43;;;10.63;;
3663;SDS011;1848;51.042;7.066;2022-10-31T02:43:03;17.63;;;10.60;;
3663;SDS011;1848;51.042;7.066;2022-10-31T02:48:36;19.90;;;10.83;;
3663;SDS011;1848;51.042;7.066;2022-10-31T02:51:05;13.43;;;9.90;;
3663;SDS011;1848;51.042;7.066;2022-10-31T02:53:33;16.40;;;10.80;;
3663;SDS011;1848;51.042;7.066;2022-10-31T02:56:04;15.20;;;10.43;;
3663;SDS011;1848;51.042;7.066;2022-10-31T02:58:33;12.70;;;10.10;;
3663;SDS011;1848;51.042;7.066;2022-10-31T03:04:03;14.03;;;10.37;;
3663;SDS011;1848;51.042;7.066;2022-10-31T03:12:29;16.07;;;11.10;;
3663;SDS011;1848;51.042;7.066;2022-10-31T03:18:10;14.80;;;10.50;;
3663;SDS011;1848;51.042;7.066;2022-10-31T03:20:48;13.73;;;10.80;;
3663;SDS011;1848;51.042;7.066;2022-10-31T03:23:21;17.00;;;10.80;;
3663;SDS011;1848;51.042;7.066;2022-10-31T03:25:50;20.17;;;11.70;;
3663;SDS011;1848;51.042;7.066;2022-10-31T03:28:22;18.07;;;10.50;;
3663;SDS011;1848;51.042;7.066;2022-10-31T03:30:53;16.50;;;10.70;;
3663;SDS011;1848;51.042;7.066;2022-10-31T03:33:22;23.97;;;11.40;;
3663;SDS011;1848;51.042;7.066;2022-10-31T03:35:54;19.37;;;11.83;;
3663;SDS011;1848;51.042;7.066;2022-10-31T03:38:23;15.07;;;10.50;;
3663;SDS011;1848;51.042;7.066;2022-10-31T03:40:50;15.37;;;10.70;;
3663;SDS011;1848;51.042;7.066;2022-10-31T03:43:19;19.03;;;11.50;;
3663;SDS011;1848;51.042;7.066;2022-10-31T03:45:50;15.00;;;11.13;;
3663;SDS011;1848;51.042;7.066;2022-10-31T03:48:17;15.90;;;10.60;;
3663;SDS011;1848;51.042;7.066;2022-10-31T03:50:49;21.00;;;11.00;;
3663;SDS011;1848;51.042;7.066;2022-10-31T03:53:26;14.43;;;10.27;;
3663;SDS011;1848;51.042;7.066;2022-10-31T03:56:00;15.90;;;10.87;;
3663;SDS011;1848;51.042;7.066;2022-10-31T03:58:34;21.07;;;11.20;;
3663;SDS011;1848;51.042;7.066;2022-10-31T04:01:09;19.70;;;11.70;;
3663;SDS011;1848;51.042;7.066;2022-10-31T04:03:39;14.93;;;10.93;;
3663;SDS011;1848;51.042;7.066;2022-10-31T04:06:07;15.10;;;11.13;;
3663;SDS011;1848;51.042;7.066;2022-10-31T04:08:39;14.60;;;10.67;;
3663;SDS011;1848;51.042;7.066;2022-10-31T04:11:08;14.57;;;11.10;;
3663;SDS011;1848;51.042;7.066;2022-10-31T04:13:38;18.63;;;11.70;;
3663;SDS011;1848;51.042;7.066;2022-10-31T04:16:06;21.60;;;11.80;;
3663;SDS011;1848;51.042;7.066;2022-10-31T04:18:39;16.60;;;11.03;;
3663;SDS011;1848;51.042;7.066;2022-10-31T04:21:06;17.63;;;11.53;;
3663;SDS011;1848;51.042;7.066;2022-10-31T04:23:34;20.10;;;11.17;;
3663;SDS011;1848;51.042;7.066;2022-10-31T04:26:01;18.20;;;11.10;;
3663;SDS011;1848;51.042;7.066;2022-10-31T04:28:28;14.30;;;10.63;;
3663;SDS011;1848;51.042;7.066;2022-10-31T04:30:55;18.33;;;11.53;;
3663;SDS011;1848;51.042;7.066;2022-10-31T04:33:21;19.67;;;11.87;;
3663;SDS011;1848;51.042;7.066;2022-10-31T04:35:47;14.87;;;10.43;;
3663;SDS011;1848;51.042;7.066;2022-10-31T04:38:14;20.67;;;12.77;;
3663;SDS011;1848;51.042;7.066;2022-10-31T04:40:40;23.23;;;12.10;;
3663;SDS011;1848;51.042;7.066;2022-10-31T04:43:07;18.13;;;11.70;;
3663;SDS011;1848;51.042;7.066;2022-10-31T04:45:33;23.50;;;10.83;;
3663;SDS011;1848;51.042;7.066;2022-10-31T04:48:00;18.23;;;11.13;;
3663;SDS011;1848;51.042;7.066;2022-10-31T04:50:27;19.83;;;12.20;;
3663;SDS011;1848;51.042;7.066;2022-10-31T04:52:53;19.13;;;11.80;;
3663;SDS011;1848;51.042;7.066;2022-10-31T04:55:19;16.53;;;11.83;;
3663;SDS011;1848;51.042;7.066;2022-10-31T04:57:47;15.70;;;12.20;;
3663;SDS011;1848;51.042;7.066;2022-10-31T05:00:15;13.50;;;10.80;;
3663;SDS011;1848;51.042;7.066;2022-10-31T05:02:44;19.70;;;11.57;;
3663;SDS011;1848;51.042;7.066;2022-10-31T05:05:19;13.43;;;10.73;;
3663;SDS011;1848;51.042;7.066;2022-10-31T05:07:47;14.27;;;9.90;;
3663;SDS011;1848;51.042;7.066;2022-10-31T05:10:16;14.97;;;10.80;;
3663;SDS011;1848;51.042;7.066;2022-10-31T05:12:48;16.87;;;10.60;;
3663;SDS011;1848;51.042;7.066;2022-10-31T05:15:17;13.53;;;11.53;;
3663;SDS011;1848;51.042;7.066;2022-10-31T05:17:46;18.80;;;11.70;;
3663;SDS011;1848;51.042;7.066;2022-10-31T05:20:14;14.77;;;10.70;;
3663;SDS011;1848;51.042;7.066;2022-10-31T05:22:42;18.00;;;11.40;;
3663;SDS011;1848;51.042;7.066;2022-10-31T05:25:10;17.17;;;11.67;;
3663;SDS011;1848;51.042;7.066;2022-10-31T05:27:40;15.47;;;11.87;;
3663;SDS011;1848;51.042;7.066;2022-10-31T05:30:08;14.53;;;11.10;;
3663;SDS011;1848;51.042;7.066;2022-10-31T05:32:37;18.50;;;11.63;;
3663;SDS011;1848;51.042;7.066;2022-10-31T05:35:08;21.57;;;13.80;;
3663;SDS011;1848;51.042;7.066;2022-10-31T05:37:36;15.40;;;12.70;;
3663;SDS011;1848;51.042;7.066;2022-10-31T05:40:03;18.27;;;11.10;;
3663;SDS011;1848;51.042;7.066;2022-10-31T05:42:33;13.70;;;11.80;;
3663;SDS011;1848;51.042;7.066;2022-10-31T05:45:00;21.50;;;12.70;;
3663;SDS011;1848;51.042;7.066;2022-10-31T05:47:26;15.03;;;12.30;;
3663;SDS011;1848;51.042;7.066;2022-10-31T05:49:53;18.40;;;12.40;;
3663;SDS011;1848;51.042;7.066;2022-10-31T05:52:19;19.40;;;12.37;;
3663;SDS011;1848;51.042;7.066;2022-10-31T05:54:46;18.20;;;10.93;;
3663;SDS011;1848;51.042;7.066;2022-10-31T05:57:12;17.80;;;11.63;;
3663;SDS011;1848;51.042;7.066;2022-10-31T05:59:38;16.40;;;12.07;;
3663;SDS011;1848;51.042;7.066;2022-10-31T06:02:05;14.83;;;11.03;;
3663;SDS011;1848;51.042;7.066;2022-10-31T06:04:31;14.90;;;11.57;;
3663;SDS011;1848;51.042;7.066;2022-10-31T06:06:58;17.97;;;12.90;;
3663;SDS011;1848;51.042;7.066;2022-10-31T06:09:25;15.53;;;11.50;;
3663;SDS011;1848;51.042;7.066;2022-10-31T06:11:51;22.87;;;12.40;;
3663;SDS011;1848;51.042;7.066;2022-10-31T06:14:17;19.27;;;11.87;;
3663;SDS011;1848;51.042;7.066;2022-10-31T06:16:44;20.77;;;12.07;;
3663;SDS011;1848;51.042;7.066;2022-10-31T06:19:10;15.80;;;12.80;;
3663;SDS011;1848;51.042;7.066;2022-10-31T06:21:36;13.13;;;11.63;;
3663;SDS011;1848;51.042;7.066;2022-10-31T06:24:03;15.80;;;11.80;;
3663;SDS011;1848;51.042;7.066;2022-10-31T06:26:30;18.10;;;11.70;;
3663;SDS011;1848;51.042;7.066;2022-10-31T06:28:56;17.17;;;11.63;;
3663;SDS011;1848;51.042;7.066;2022-10-31T06:31:29;19.67;;;11.60;;
3663;SDS011;1848;51.042;7.066;2022-10-31T06:33:56;18.63;;;13.40;;
3663;SDS011;1848;51.042;7.066;2022-10-31T06:36:22;18.83;;;13.03;;
3663;SDS011;1848;51.042;7.066;2022-10-31T06:38:49;17.33;;;14.13;;
3663;SDS011;1848;51.042;7.066;2022-10-31T06:41:15;22.50;;;13.63;;
3663;SDS011;1848;51.042;7.066;2022-10-31T06:43:42;19.13;;;12.57;;
3663;SDS011;1848;51.042;7.066;2022-10-31T06:46:08;20.90;;;13.50;;
3663;SDS011;1848;51.042;7.066;2022-10-31T06:48:34;14.50;;;12.17;;
3663;SDS011;1848;51.042;7.066;2022-10-31T06:51:01;17.20;;;12.53;;
3663;SDS011;1848;51.042;7.066;2022-10-31T06:53:28;19.37;;;12.83;;
3663;SDS011;1848;51.042;7.066;2022-10-31T06:55:56;19.83;;;13.37;;
3663;SDS011;1848;51.042;7.066;2022-10-31T06:58:22;16.77;;;11.67;;
3663;SDS011;1848;51.042;7.066;2022-10-31T07:00:49;15.53;;;12.10;;
3663;SDS011;1848;51.042;7.066;2022-10-31T07:03:15;18.83;;;11.90;;
3663;SDS011;1848;51.042;7.066;2022-10-31T07:05:42;18.40;;;12.87;;
3663;SDS011;1848;51.042;7.066;2022-10-31T07:08:10;18.73;;;12.63;;
3663;SDS011;1848;51.042;7.066;2022-10-31T07:10:39;16.03;;;12.80;;
3663;SDS011;1848;51.042;7.066;2022-10-31T07:13:09;18.20;;;12.80;;
3663;SDS011;1848;51.042;7.066;2022-10-31T07:15:38;17.53;;;11.90;;
3663;SDS011;1848;51.042;7.066;2022-10-31T07:18:07;19.37;;;13.60;;
3663;SDS011;1848;51.042;7.066;2022-10-31T07:20:35;19.97;;;12.00;;
3663;SDS011;1848;51.042;7.066;2022-10-31T07:23:02;17.23;;;13.20;;
3663;SDS011;1848;51.042;7.066;2022-10-31T07:25:29;18.57;;;12.97;;
3663;SDS011;1848;51.042;7.066;2022-10-31T07:27:56;19.50;;;12.93;;
3663;SDS011;1848;51.042;7.066;2022-10-31T07:30:23;18.80;;;12.87;;
3663;SDS011;1848;51.042;7.066;2022-10-31T07:32:49;18.80;;;13.30;;
3663;SDS011;1848;51.042;7.066;2022-10-31T07:35:22;21.83;;;13.33;;
3663;SDS011;1848;51.042;7.066;2022-10-31T07:37:50;18.20;;;12.27;;
3663;SDS011;1848;51.042;7.066;2022-10-31T07:40:17;18.27;;;12.17;;
3663;SDS011;1848;51.042;7.066;2022-10-31T07:42:45;19.73;;;13.67;;
3663;SDS011;1848;51.042;7.066;2022-10-31T07:45:14;19.93;;;11.67;;
3663;SDS011;1848;51.042;7.066;2022-10-31T07:47:43;15.30;;;13.27;;
3663;SDS011;1848;51.042;7.066;2022-10-31T07:50:20;17.50;;;11.10;;
3663;SDS011;1848;51.042;7.066;2022-10-31T07:52:48;14.97;;;10.53;;
3663;SDS011;1848;51.042;7.066;2022-10-31T07:55:23;18.63;;;11.00;;
3663;SDS011;1848;51.042;7.066;2022-10-31T07:58:03;20.93;;;11.30;;
3663;SDS011;1848;51.042;7.066;2022-10-31T08:00:40;17.80;;;11.63;;
3663;SDS011;1848;51.042;7.066;2022-10-31T08:03:12;17.67;;;11.33;;
3663;SDS011;1848;51.042;7.066;2022-10-31T08:05:40;17.33;;;11.90;;
3663;SDS011;1848;51.042;7.066;2022-10-31T08:08:07;17.03;;;11.40;;
3663;SDS011;1848;51.042;7.066;2022-10-31T08:10:34;14.57;;;11.47;;
3663;SDS011;1848;51.042;7.066;2022-10-31T08:13:05;16.70;;;11.33;;
3663;SDS011;1848;51.042;7.066;2022-10-31T08:15:34;18.13;;;11.43;;
3663;SDS011;1848;51.042;7.066;2022-10-31T08:18:04;18.53;;;11.70;;
3663;SDS011;1848;51.042;7.066;2022-10-31T08:20:31;15.60;;;10.77;;
3663;SDS011;1848;51.042;7.066;2022-10-31T08:22:59;16.50;;;11.03;;
3663;SDS011;1848;51.042;7.066;2022-10-31T08:25:27;15.10;;;10.80;;
3663;SDS011;1848;51.042;7.066;2022-10-31T08:28:00;17.47;;;11.57;;
3663;SDS011;1848;51.042;7.066;2022-10-31T08:30:29;14.23;;;10.67;;
3663;SDS011;1848;51.042;7.066;2022-10-31T08:33:08;16.33;;;11.03;;
3663;SDS011;1848;51.042;7.066;2022-10-31T08:35:36;14.00;;;10.67;;
3663;SDS011;1848;51.042;7.066;2022-10-31T08:38:03;20.40;;;12.73;;
3663;SDS011;1848;51.042;7.066;2022-10-31T08:40:31;24.93;;;14.10;;
3663;SDS011;1848;51.042;7.066;2022-10-31T08:43:16;20.17;;;12.67;;
3663;SDS011;1848;51.042;7.066;2022-10-31T08:45:44;21.33;;;12.40;;
3663;SDS011;1848;51.042;7.066;2022-10-31T08:48:14;22.23;;;12.80;;
3663;SDS011;1848;51.042;7.066;2022-10-31T08:50:42;19.17;;;12.03;;
3663;SDS011;1848;51.042;7.066;2022-10-31T08:53:14;19.27;;;13.17;;
3663;SDS011;1848;51.042;7.066;2022-10-31T08:55:45;18.83;;;13.40;;
3663;SDS011;1848;51.042;7.066;2022-10-31T08:58:13;22.53;;;13.10;;
3663;SDS011;1848;51.042;7.066;2022-10-31T09:00:45;19.70;;;13.30;;
3663;SDS011;1848;51.042;7.066;2022-10-31T09:03:13;21.10;;;14.77;;
3663;SDS011;1848;51.042;7.066;2022-10-31T09:05:45;19.70;;;13.20;;
3663;SDS011;1848;51.042;7.066;2022-10-31T09:08:12;18.13;;;13.50;;
3663;SDS011;1848;51.042;7.066;2022-10-31T09:10:42;19.73;;;12.67;;
3663;SDS011;1848;51.042;7.066;2022-10-31T09:13:13;19.30;;;13.17;;
3663;SDS011;1848;51.042;7.066;2022-10-31T09:15:42;16.20;;;12.30;;
3663;SDS011;1848;51.042;7.066;2022-10-31T09:18:10;18.60;;;12.20;;
3663;SDS011;1848;51.042;7.066;2022-10-31T09:20:38;18.50;;;12.90;;
3663;SDS011;1848;51.042;7.066;2022-10-31T09:23:07;20.17;;;12.60;;
3663;SDS011;1848;51.042;7.066;2022-10-31T09:25:36;17.73;;;12.07;;
3663;SDS011;1848;51.042;7.066;2022-10-31T09:28:03;17.10;;;12.00;;
3663;SDS011;1848;51.042;7.066;2022-10-31T09:30:31;17.53;;;11.93;;
3663;SDS011;1848;51.042;7.066;2022-10-31T09:33:00;14.33;;;11.70;;
3663;SDS011;1848;51.042;7.066;2022-10-31T09:35:28;17.10;;;11.73;;
3663;SDS011;1848;51.042;7.066;2022-10-31T09:37:55;18.90;;;12.80;;
3663;SDS011;1848;51.042;7.066;2022-10-31T09:40:37;21.70;;;12.60;;
3663;SDS011;1848;51.042;7.066;2022-10-31T09:48:41;18.70;;;11.80;;
3663;SDS011;1848;51.042;7.066;2022-10-31T09:51:29;18.60;;;13.67;;
3663;SDS011;1848;51.042;7.066;2022-10-31T09:54:00;20.70;;;12.73;;
3663;SDS011;1848;51.042;7.066;2022-10-31T09:56:47;20.17;;;12.83;;
3663;SDS011;1848;51.042;7.066;2022-10-31T09:59:18;22.03;;;13.43;;
3663;SDS011;1848;51.042;7.066;2022-10-31T10:02:01;17.07;;;12.50;;
3663;SDS011;1848;51.042;7.066;2022-10-31T10:04:41;17.87;;;12.83;;
3663;SDS011;1848;51.042;7.066;2022-10-31T10:07:22;19.57;;;11.20;;
3663;SDS011;1848;51.042;7.066;2022-10-31T10:09:56;24.87;;;12.40;;
3663;SDS011;1848;51.042;7.066;2022-10-31T10:12:28;25.33;;;14.40;;
3663;SDS011;1848;51.042;7.066;2022-10-31T10:23:46;18.60;;;11.53;;
3663;SDS011;1848;51.042;7.066;2022-10-31T10:26:21;18.23;;;11.77;;
3663;SDS011;1848;51.042;7.066;2022-10-31T10:28:56;18.70;;;11.93;;
3663;SDS011;1848;51.042;7.066;2022-10-31T10:31:28;18.10;;;11.53;;
3663;SDS011;1848;51.042;7.066;2022-10-31T10:34:02;23.93;;;11.50;;
3663;SDS011;1848;51.042;7.066;2022-10-31T10:39:11;21.80;;;9.70;;
3663;SDS011;1848;51.042;7.066;2022-10-31T10:41:49;23.73;;;10.70;;
3663;SDS011;1848;51.042;7.066;2022-10-31T10:44:39;17.83;;;10.73;;
3663;SDS011;1848;51.042;7.066;2022-10-31T10:47:31;17.53;;;10.20;;
3663;SDS011;1848;51.042;7.066;2022-10-31T10:50:09;20.10;;;10.40;;
3663;SDS011;1848;51.042;7.066;2022-10-31T10:53:03;17.13;;;9.90;;
3663;SDS011;1848;51.042;7.066;2022-10-31T10:58:46;18.07;;;9.90;;
3663;SDS011;1848;51.042;7.066;2022-10-31T11:01:14;16.43;;;9.80;;
3663;SDS011;1848;51.042;7.066;2022-10-31T11:03:46;18.67;;;8.70;;
3663;SDS011;1848;51.042;7.066;2022-10-31T11:06:19;14.17;;;8.80;;
3663;SDS011;1848;51.042;7.066;2022-10-31T11:08:52;18.57;;;9.67;;
3663;SDS011;1848;51.042;7.066;2022-10-31T11:11:24;14.30;;;8.33;;
3663;SDS011;1848;51.042;7.066;2022-10-31T11:13:56;17.27;;;9.00;;
3663;SDS011;1848;51.042;7.066;2022-10-31T11:16:30;17.37;;;8.53;;
3663;SDS011;1848;51.042;7.066;2022-10-31T11:21:41;12.93;;;8.80;;
3663;SDS011;1848;51.042;7.066;2022-10-31T11:26:37;14.17;;;8.67;;
3663;SDS011;1848;51.042;7.066;2022-10-31T11:29:05;14.20;;;8.13;;
3663;SDS011;1848;51.042;7.066;2022-10-31T11:31:40;17.67;;;8.50;;
3663;SDS011;1848;51.042;7.066;2022-10-31T11:37:13;12.70;;;8.00;;
3663;SDS011;1848;51.042;7.066;2022-10-31T11:39:53;10.17;;;7.60;;
3663;SDS011;1848;51.042;7.066;2022-10-31T11:42:22;12.63;;;7.90;;
3663;SDS011;1848;51.042;7.066;2022-10-31T11:44:51;9.93;;;7.70;;
3663;SDS011;1848;51.042;7.066;2022-10-31T11:47:29;11.73;;;7.40;;
3663;SDS011;1848;51.042;7.066;2022-10-31T11:50:00;11.47;;;7.53;;
3663;SDS011;1848;51.042;7.066;2022-10-31T11:52:30;14.47;;;8.17;;
3663;SDS011;1848;51.042;7.066;2022-10-31T11:55:02;14.80;;;7.30;;
3663;SDS011;1848;51.042;7.066;2022-10-31T11:57:48;11.40;;;6.80;;
3663;SDS011;1848;51.042;7.066;2022-10-31T12:00:21;18.30;;;7.73;;
3663;SDS011;1848;51.042;7.066;2022-10-31T12:02:50;15.40;;;7.57;;
3663;SDS011;1848;51.042;7.066;2022-10-31T12:05:18;16.20;;;7.70;;
3663;SDS011;1848;51.042;7.066;2022-10-31T12:07:49;11.03;;;7.77;;
3663;SDS011;1848;51.042;7.066;2022-10-31T12:10:16;12.10;;;7.10;;
3663;SDS011;1848;51.042;7.066;2022-10-31T12:15:31;13.70;;;6.80;;
3663;SDS011;1848;51.042;7.066;2022-10-31T12:26:08;13.00;;;6.33;;
3663;SDS011;1848;51.042;7.066;2022-10-31T12:31:49;11.00;;;5.50;;
3663;SDS011;1848;51.042;7.066;2022-10-31T12:40:07;12.03;;;6.20;;
3663;SDS011;1848;51.042;7.066;2022-10-31T12:46:00;11.43;;;6.50;;
3663;SDS011;1848;51.042;7.066;2022-10-31T12:48:32;13.13;;;7.07;;
3663;SDS011;1848;51.042;7.066;2022-10-31T12:51:24;12.70;;;6.10;;
3663;SDS011;1848;51.042;7.066;2022-10-31T12:59:51;13.00;;;6.80;;
3663;SDS011;1848;51.042;7.066;2022-10-31T13:07:53;10.80;;;7.13;;
3663;SDS011;1848;51.042;7.066;2022-10-31T13:10:36;13.50;;;6.10;;
3663;SDS011;1848;51.042;7.066;2022-10-31T13:13:27;17.73;;;6.67;;
3663;SDS011;1848;51.042;7.066;2022-10-31T13:16:08;9.50;;;6.20;;
3663;SDS011;1848;51.042;7.066;2022-10-31T13:18:51;11.13;;;5.90;;
3663;SDS011;1848;51.042;7.066;2022-10-31T13:21:23;17.33;;;6.30;;
3663;SDS011;1848;51.042;7.066;2022-10-31T13:23:53;13.40;;;6.50;;
3663;SDS011;1848;51.042;7.066;2022-10-31T13:27:09;11.67;;;6.43;;
3663;SDS011;1848;51.042;7.066;2022-10-31T13:29:29;13.10;;;7.13;;
3663;SDS011;1848;51.042;7.066;2022-10-31T13:31:59;26.30;;;23.93;;
3663;SDS011;1848;51.042;7.066;2022-10-31T13:34:32;8.23;;;7.00;;
3663;SDS011;1848;51.042;7.066;2022-10-31T13:45:18;16.50;;;5.93;;
3663;SDS011;1848;51.042;7.066;2022-10-31T13:47:56;11.07;;;6.87;;
3663;SDS011;1848;51.042;7.066;2022-10-31T13:50:32;10.00;;;5.90;;
3663;SDS011;1848;51.042;7.066;2022-10-31T13:55:45;10.33;;;6.40;;
3663;SDS011;1848;51.042;7.066;2022-10-31T13:58:26;15.60;;;7.10;;
3663;SDS011;1848;51.042;7.066;2022-10-31T14:03:37;13.47;;;6.50;;
3663;SDS011;1848;51.042;7.066;2022-10-31T14:06:34;15.00;;;5.60;;
3663;SDS011;1848;51.042;7.066;2022-10-31T14:09:15;9.80;;;6.10;;
3663;SDS011;1848;51.042;7.066;2022-10-31T14:11:45;11.30;;;6.27;;
3663;SDS011;1848;51.042;7.066;2022-10-31T14:14:14;13.10;;;6.30;;
3663;SDS011;1848;51.042;7.066;2022-10-31T14:16:42;15.53;;;6.40;;
3663;SDS011;1848;51.042;7.066;2022-10-31T14:19:14;10.33;;;6.23;;
3663;SDS011;1848;51.042;7.066;2022-10-31T14:21:44;11.00;;;5.80;;
3663;SDS011;1848;51.042;7.066;2022-10-31T14:24:15;14.03;;;7.87;;
3663;SDS011;1848;51.042;7.066;2022-10-31T14:27:42;14.30;;;6.70;;
3663;SDS011;1848;51.042;7.066;2022-10-31T14:29:50;12.40;;;5.63;;
3663;SDS011;1848;51.042;7.066;2022-10-31T14:32:23;10.70;;;5.97;;
3663;SDS011;1848;51.042;7.066;2022-10-31T14:34:53;14.10;;;6.30;;
3663;SDS011;1848;51.042;7.066;2022-10-31T14:42:50;9.47;;;6.73;;
3663;SDS011;1848;51.042;7.066;2022-10-31T14:51:21;12.07;;;6.70;;
3663;SDS011;1848;51.042;7.066;2022-10-31T14:53:49;14.83;;;5.87;;
3663;SDS011;1848;51.042;7.066;2022-10-31T14:56:30;8.97;;;5.20;;
3663;SDS011;1848;51.042;7.066;2022-10-31T14:59:06;10.03;;;5.40;;
3663;SDS011;1848;51.042;7.066;2022-10-31T15:01:38;11.10;;;5.30;;
3663;SDS011;1848;51.042;7.066;2022-10-31T15:07:04;7.47;;;5.60;;
3663;SDS011;1848;51.042;7.066;2022-10-31T15:09:35;12.80;;;5.53;;
3663;SDS011;1848;51.042;7.066;2022-10-31T15:12:22;11.73;;;6.20;;
3663;SDS011;1848;51.042;7.066;2022-10-31T15:14:50;11.17;;;6.20;;
3663;SDS011;1848;51.042;7.066;2022-10-31T15:17:18;17.10;;;6.63;;
3663;SDS011;1848;51.042;7.066;2022-10-31T15:19:46;13.90;;;6.00;;
3663;SDS011;1848;51.042;7.066;2022-10-31T15:22:14;14.00;;;6.20;;
3663;SDS011;1848;51.042;7.066;2022-10-31T15:24:42;10.33;;;5.83;;
3663;SDS011;1848;51.042;7.066;2022-10-31T15:27:13;10.87;;;6.37;;
3663;SDS011;1848;51.042;7.066;2022-10-31T15:29:54;10.93;;;6.50;;
3663;SDS011;1848;51.042;7.066;2022-10-31T15:32:25;15.50;;;6.20;;
3663;SDS011;1848;51.042;7.066;2022-10-31T15:34:54;9.73;;;6.17;;
3663;SDS011;1848;51.042;7.066;2022-10-31T15:37:28;10.73;;;6.50;;
3663;SDS011;1848;51.042;7.066;2022-10-31T15:39:55;13.53;;;5.80;;
3663;SDS011;1848;51.042;7.066;2022-10-31T15:42:24;20.30;;;8.87;;
3663;SDS011;1848;51.042;7.066;2022-10-31T15:45:01;15.03;;;6.10;;
3663;SDS011;1848;51.042;7.066;2022-10-31T15:47:29;12.30;;;6.10;;
3663;SDS011;1848;51.042;7.066;2022-10-31T15:49:58;9.83;;;5.30;;
3663;SDS011;1848;51.042;7.066;2022-10-31T15:55:03;16.40;;;5.90;;
3663;SDS011;1848;51.042;7.066;2022-10-31T15:57:32;8.30;;;5.40;;
3663;SDS011;1848;51.042;7.066;2022-10-31T15:59:59;10.30;;;5.43;;
3663;SDS011;1848;51.042;7.066;2022-10-31T16:02:26;11.73;;;5.43;;
3663;SDS011;1848;51.042;7.066;2022-10-31T16:05:14;14.13;;;5.60;;
3663;SDS011;1848;51.042;7.066;2022-10-31T16:07:50;14.00;;;5.80;;
3663;SDS011;1848;51.042;7.066;2022-10-31T16:10:22;19.80;;;7.83;;
3663;SDS011;1848;51.042;7.066;2022-10-31T16:12:50;15.73;;;7.20;;
3663;SDS011;1848;51.042;7.066;2022-10-31T16:15:17;20.53;;;7.77;;
3663;SDS011;1848;51.042;7.066;2022-10-31T16:17:46;16.00;;;9.93;;
3663;SDS011;1848;51.042;7.066;2022-10-31T16:20:18;21.10;;;8.93;;
3663;SDS011;1848;51.042;7.066;2022-10-31T16:22:50;21.00;;;8.77;;
3663;SDS011;1848;51.042;7.066;2022-10-31T16:25:35;13.63;;;7.20;;
3663;SDS011;1848;51.042;7.066;2022-10-31T16:28:04;15.43;;;6.60;;
3663;SDS011;1848;51.042;7.066;2022-10-31T16:30:41;11.03;;;5.70;;
3663;SDS011;1848;51.042;7.066;2022-10-31T16:33:47;16.40;;;6.37;;
3663;SDS011;1848;51.042;7.066;2022-10-31T16:39:01;12.10;;;7.37;;
3663;SDS011;1848;51.042;7.066;2022-10-31T16:41:28;12.77;;;5.67;;
3663;SDS011;1848;51.042;7.066;2022-10-31T16:43:54;11.00;;;5.43;;
3663;SDS011;1848;51.042;7.066;2022-10-31T16:46:22;8.30;;;5.40;;
3663;SDS011;1848;51.042;7.066;2022-10-31T16:48:50;10.83;;;5.47;;
3663;SDS011;1848;51.042;7.066;2022-10-31T16:51:17;9.20;;;5.60;;
3663;SDS011;1848;51.042;7.066;2022-10-31T16:53:44;13.80;;;6.23;;
3663;SDS011;1848;51.042;7.066;2022-10-31T16:56:16;13.63;;;6.30;;
3663;SDS011;1848;51.042;7.066;2022-10-31T16:58:44;13.33;;;5.80;;
3663;SDS011;1848;51.042;7.066;2022-10-31T17:01:11;12.80;;;5.50;;
3663;SDS011;1848;51.042;7.066;2022-10-31T17:03:39;11.93;;;5.60;;
3663;SDS011;1848;51.042;7.066;2022-10-31T17:06:08;9.80;;;6.20;;
3663;SDS011;1848;51.042;7.066;2022-10-31T17:08:36;15.00;;;5.70;;
3663;SDS011;1848;51.042;7.066;2022-10-31T17:11:03;14.20;;;6.10;;
3663;SDS011;1848;51.042;7.066;2022-10-31T17:13:31;11.40;;;5.70;;
3663;SDS011;1848;51.042;7.066;2022-10-31T17:16:00;8.80;;;5.77;;
3663;SDS011;1848;51.042;7.066;2022-10-31T17:18:28;9.33;;;5.30;;